Time;durP1;ratioP1;P1;durP2;ratioP2;P2;SDS_P1;SDS_P2;PMS_P1;PMS_P2;Temp;Humidity;BMP_temperature;BMP_pressure;BME280_temperature;BME280_humidity;BME280_pressure;Samples;Min_cycle;Max_cycle;Signal;HPM_P1;HPM_P2
2022/02/06 00:00:10;;;;;;;21.23;4.60;;;13.40;66.70;;;;;;5078098;28;20055;-76
2022/02/06 00:02:38;;;;;;;19.02;4.07;;;13.40;66.60;;;;;;5073439;28;20060;-76
2022/02/06 00:05:04;;;;;;;12.32;4.25;;;13.40;66.60;;;;;;5075079;28;20049;-77
2022/02/06 00:07:30;;;;;;;14.63;4.07;;;13.30;66.60;;;;;;5075727;28;20182;-78
2022/02/06 00:09:57;;;;;;;19.45;4.43;;;13.30;66.60;;;;;;5057477;28;20109;-74
2022/02/06 00:12:22;;;;;;;11.32;4.32;;;13.30;66.50;;;;;;5057979;28;20118;-75
2022/02/06 00:14:48;;;;;;;14.95;4.13;;;13.30;66.60;;;;;;5074861;28;20444;-74
2022/02/06 00:17:14;;;;;;;14.80;4.35;;;13.30;66.60;;;;;;5071620;28;20388;-74
2022/02/06 00:19:42;;;;;;;14.65;3.60;;;13.30;66.50;;;;;;5075068;28;20040;-76
2022/02/06 00:22:12;;;;;;;16.25;4.10;;;13.30;66.60;;;;;;5074964;28;20044;-74
2022/02/06 00:24:50;;;;;;;13.70;4.45;;;13.30;66.60;;;;;;5074729;28;20044;-75
2022/02/06 00:27:35;;;;;;;14.35;3.88;;;13.30;66.70;;;;;;5057617;28;20113;-74
2022/02/06 00:30:14;;;;;;;18.90;4.25;;;13.30;66.70;;;;;;5057302;28;20084;-77
2022/02/06 00:32:46;;;;;;;10.93;3.90;;;13.30;66.70;;;;;;5067422;28;20048;-75
2022/02/06 00:41:14;;;;;;;17.20;4.15;;;13.30;66.80;;;;;;5081206;28;20048;-75
2022/02/06 00:43:19;;;;;;;14.50;4.60;;;13.30;66.70;;;;;;5072484;28;20047;-74
2022/02/06 00:45:45;;;;;;;15.18;4.25;;;13.20;66.70;;;;;;5081143;28;20131;-76
2022/02/06 00:48:11;;;;;;;17.52;3.83;;;13.20;66.80;;;;;;5099013;28;20044;-76
2022/02/06 00:50:41;;;;;;;16.27;3.80;;;13.20;66.80;;;;;;5098680;28;20040;-75
2022/02/06 00:53:14;;;;;;;16.08;4.03;;;13.20;66.80;;;;;;5098749;28;20087;-75
2022/02/06 00:55:40;;;;;;;15.47;4.30;;;13.20;66.80;;;;;;5080923;28;20048;-77
2022/02/06 00:58:06;;;;;;;19.02;4.57;;;13.20;66.80;;;;;;5088723;28;20470;-74
2022/02/06 01:00:32;;;;;;;15.23;4.30;;;13.20;66.80;;;;;;5078186;28;20051;-76
2022/02/06 01:02:58;;;;;;;17.15;4.22;;;13.20;66.80;;;;;;5078029;28;20060;-75
2022/02/06 01:05:24;;;;;;;16.52;4.15;;;13.20;66.70;;;;;;5060651;28;20048;-75
2022/02/06 01:07:51;;;;;;;16.65;4.68;;;13.20;66.80;;;;;;5060634;28;20120;-74
2022/02/06 01:10:17;;;;;;;18.08;4.20;;;13.20;66.80;;;;;;5078744;28;20056;-78
2022/02/06 01:12:49;;;;;;;18.17;3.88;;;13.20;66.80;;;;;;5061103;28;20055;-77
2022/02/06 01:15:23;;;;;;;17.33;4.40;;;13.20;66.90;;;;;;5078225;28;20113;-75
2022/02/06 01:17:55;;;;;;;18.88;3.95;;;13.10;66.90;;;;;;5077868;28;20056;-75
2022/02/06 01:20:27;;;;;;;21.10;4.90;;;13.20;67.00;;;;;;5060625;28;20135;-75
2022/02/06 01:22:58;;;;;;;20.98;5.03;;;13.20;66.90;;;;;;5060168;28;20095;-76
2022/02/06 01:25:32;;;;;;;13.65;4.05;;;13.10;66.90;;;;;;5060948;28;20088;-76
2022/02/06 01:28:06;;;;;;;15.88;3.78;;;13.20;66.90;;;;;;5060421;28;20063;-77
2022/02/06 01:33:20;;;;;;;15.70;3.72;;;13.20;66.80;;;;;;5059928;28;20048;-75
2022/02/06 01:38:25;;;;;;;13.65;4.10;;;13.10;66.90;;;;;;5078410;28;20328;-75
2022/02/06 01:43:23;;;;;;;13.75;4.22;;;13.10;66.90;;;;;;5059580;28;20044;-74
2022/02/06 02:21:29;;;;;;;12.75;3.95;;;13.00;67.30;;;;;;5097038;28;20086;-75
2022/02/06 02:24:12;;;;;;;18.92;4.57;;;13.00;67.40;;;;;;5078789;28;20135;-74
2022/02/06 02:48:12;;;;;;;16.42;3.67;;;13.00;67.60;;;;;;5008096;28;20478;-76
2022/02/06 02:50:43;;;;;;;17.92;4.15;;;13.00;67.60;;;;;;5038849;28;20056;-74
2022/02/06 03:00:49;;;;;;;17.10;4.55;;;12.90;67.70;;;;;;5075675;28;20063;-75
2022/02/06 03:03:18;;;;;;;16.08;4.20;;;12.90;67.80;;;;;;5075676;28;20052;-76
2022/02/06 03:05:47;;;;;;;15.25;3.90;;;12.90;67.90;;;;;;5075600;28;20054;-75
2022/02/06 03:08:13;;;;;;;16.38;4.10;;;12.90;68.00;;;;;;5041688;28;20048;-76
2022/02/06 03:10:39;;;;;;;12.93;3.97;;;12.90;68.00;;;;;;5041586;28;20041;-77
2022/02/06 03:13:09;;;;;;;14.80;3.95;;;12.90;68.00;;;;;;5041819;28;20117;-77
2022/02/06 03:15:45;;;;;;;14.77;3.75;;;12.90;67.90;;;;;;5075410;28;20063;-74
2022/02/06 03:18:22;;;;;;;13.52;3.97;;;12.90;68.00;;;;;;5058023;28;20535;-76
2022/02/06 03:20:50;;;;;;;15.52;3.78;;;12.90;68.10;;;;;;5076186;28;20098;-76
2022/02/06 03:23:16;;;;;;;13.88;3.58;;;12.90;68.10;;;;;;5075412;28;20087;-76
2022/02/06 03:25:52;;;;;;;12.75;3.22;;;12.90;68.10;;;;;;5030824;28;20376;-77
2022/02/06 03:28:22;;;;;;;12.73;3.80;;;12.90;68.10;;;;;;5054912;28;20452;-75
2022/02/06 03:30:49;;;;;;;16.15;3.80;;;12.90;68.10;;;;;;5037716;28;20064;-75
2022/02/06 03:33:15;;;;;;;16.20;3.53;;;12.90;68.10;;;;;;5038482;28;20048;-76
2022/02/06 03:35:41;;;;;;;16.88;3.85;;;12.90;68.00;;;;;;5044737;28;20438;-76
2022/02/06 03:38:08;;;;;;;13.63;3.33;;;12.90;68.20;;;;;;5057865;28;20123;-75
2022/02/06 03:40:50;;;;;;;12.80;3.25;;;12.90;68.20;;;;;;5075432;28;20467;-74
2022/02/06 03:43:20;;;;;;;16.23;4.18;;;12.90;68.20;;;;;;5075048;28;20341;-74
2022/02/06 03:46:10;;;;;;;14.85;3.50;;;12.90;68.20;;;;;;5057902;28;20052;-76
2022/02/06 03:48:51;;;;;;;17.75;4.13;;;12.90;68.10;;;;;;5056760;28;20044;-75
2022/02/06 03:51:23;;;;;;;13.65;3.72;;;12.90;68.10;;;;;;5057858;28;20063;-75
2022/02/06 03:53:52;;;;;;;15.02;3.47;;;12.90;68.20;;;;;;5074916;28;20048;-77
2022/02/06 03:56:20;;;;;;;12.38;3.58;;;12.90;68.20;;;;;;5090119;28;20078;-75
2022/02/06 03:58:46;;;;;;;11.32;2.85;;;12.90;68.20;;;;;;5077802;28;20056;-75
2022/02/06 04:01:12;;;;;;;15.90;3.45;;;12.90;68.20;;;;;;5095415;28;20044;-75
2022/02/06 04:03:38;;;;;;;15.02;3.50;;;12.90;68.20;;;;;;5042695;28;20128;-76
2022/02/06 04:06:04;;;;;;;15.82;3.30;;;12.90;68.20;;;;;;5074885;28;20049;-76
2022/02/06 04:08:33;;;;;;;12.93;4.50;;;12.90;68.30;;;;;;5057570;28;20049;-76
2022/02/06 04:10:59;;;;;;;16.80;3.53;;;12.90;68.20;;;;;;5057725;28;20414;-76
2022/02/06 04:13:26;;;;;;;15.75;3.53;;;12.90;68.30;;;;;;5079894;28;20060;-74
2022/02/06 04:15:59;;;;;;;11.63;3.92;;;12.90;68.30;;;;;;5085011;28;20055;-76
2022/02/06 04:18:46;;;;;;;12.25;3.20;;;12.90;68.40;;;;;;5081267;28;20044;-75
2022/02/06 04:21:12;;;;;;;16.33;4.10;;;12.90;68.40;;;;;;5099770;28;20056;-77
2022/02/06 04:23:38;;;;;;;12.55;4.47;;;12.80;68.40;;;;;;5099154;28;20476;-75
2022/02/06 04:26:03;;;;;;;16.95;4.30;;;12.80;68.50;;;;;;5081359;28;20123;-75
2022/02/06 04:28:29;;;;;;;17.63;4.13;;;12.80;68.60;;;;;;5098984;28;20044;-77
2022/02/06 04:30:55;;;;;;;16.58;3.72;;;12.80;68.60;;;;;;5081839;28;20120;-77
2022/02/06 04:33:20;;;;;;;16.75;3.65;;;12.80;68.70;;;;;;5084093;28;20055;-75
2022/02/06 04:35:49;;;;;;;14.63;3.47;;;12.80;68.80;;;;;;5060842;28;20422;-77
2022/02/06 05:32:33;;;;;;;14.77;3.47;;;15.50;63.40;;;;;;5059530;28;20048;-76
2022/02/06 05:34:59;;;;;;;16.67;3.72;;;15.20;64.30;;;;;;5042966;28;20101;-77
2022/02/06 05:37:26;;;;;;;21.00;3.70;;;15.40;64.10;;;;;;5098966;28;20378;-74
2022/02/06 05:39:56;;;;;;;14.63;2.78;;;15.50;64.00;;;;;;5117136;28;20040;-77
2022/02/06 05:42:22;;;;;;;16.65;3.47;;;15.70;64.00;;;;;;5095941;28;20055;-76
2022/02/06 05:44:54;;;;;;;12.45;3.22;;;15.80;64.20;;;;;;5075750;28;20056;-76
2022/02/06 05:47:22;;;;;;;12.27;2.70;;;15.80;64.70;;;;;;5042780;28;20048;-75
2022/02/06 05:49:47;;;;;;;20.60;2.92;;;15.80;64.80;;;;;;5070575;28;20523;-76
2022/02/06 05:52:13;;;;;;;18.52;4.07;;;15.90;64.80;;;;;;5078790;28;20135;-77
2022/02/06 05:54:39;;;;;;;17.35;4.07;;;16.00;64.60;;;;;;5063136;28;20128;-76
2022/02/06 05:57:05;;;;;;;15.57;3.30;;;16.10;64.60;;;;;;5059828;28;20060;-75
2022/02/06 05:59:31;;;;;;;12.95;2.95;;;16.20;64.70;;;;;;5060566;28;20043;-78
2022/02/06 06:01:57;;;;;;;16.80;3.42;;;16.30;64.40;;;;;;5093391;28;20035;-75
2022/02/06 06:04:23;;;;;;;20.45;3.35;;;16.40;64.40;;;;;;5117701;28;20371;-76
2022/02/06 06:06:49;;;;;;;17.95;2.92;;;16.40;64.30;;;;;;5097026;28;20140;-75
2022/02/06 06:09:14;;;;;;;17.00;2.85;;;16.50;64.30;;;;;;5097141;28;20063;-74
2022/02/06 06:11:40;;;;;;;13.27;2.83;;;16.60;64.40;;;;;;5079456;28;20048;-75
2022/02/06 06:14:06;;;;;;;17.55;3.05;;;16.60;64.30;;;;;;5057656;28;20044;-75
2022/02/06 06:16:33;;;;;;;16.17;3.10;;;16.70;64.30;;;;;;5062236;28;20052;-75
2022/02/06 06:19:01;;;;;;;18.75;4.15;;;16.70;63.80;;;;;;5075762;28;20048;-76
2022/02/06 06:21:29;;;;;;;19.92;3.28;;;16.70;64.00;;;;;;5076930;28;20052;-75
2022/02/06 06:23:55;;;;;;;17.38;2.80;;;16.70;64.20;;;;;;5059202;28;20055;-78
2022/02/06 06:26:24;;;;;;;18.63;3.28;;;16.80;64.20;;;;;;5076672;28;20052;-77
2022/02/06 06:28:50;;;;;;;16.80;2.60;;;16.80;64.10;;;;;;5077288;28;20040;-75
2022/02/06 06:31:15;;;;;;;19.05;2.92;;;16.90;64.10;;;;;;5059395;28;20055;-75
2022/02/06 06:33:41;;;;;;;11.15;2.20;;;16.90;63.90;;;;;;5106822;28;20123;-77
2022/02/06 06:36:07;;;;;;;9.77;2.60;;;17.00;63.80;;;;;;5098586;28;20044;-75
2022/02/06 06:38:33;;;;;;;10.73;2.90;;;17.00;63.80;;;;;;5099405;28;20100;-77
2022/02/06 06:41:00;;;;;;;19.75;2.92;;;17.00;63.70;;;;;;5097745;28;20498;-78
2022/02/06 06:43:26;;;;;;;18.50;2.50;;;17.10;63.30;;;;;;5084679;28;20496;-79
2022/02/06 06:45:53;;;;;;;14.32;2.30;;;17.20;63.10;;;;;;5095889;28;20048;-80
2022/02/06 06:48:18;;;;;;;19.00;2.45;;;17.30;62.60;;;;;;5057588;28;20047;-78
2022/02/06 06:50:44;;;;;;;12.52;2.78;;;17.40;62.30;;;;;;5076090;28;20028;-78
2022/02/06 06:53:12;;;;;;;14.82;3.13;;;17.10;61.80;;;;;;5075867;28;20044;-78
2022/02/06 06:55:42;;;;;;;10.00;2.30;;;17.30;62.20;;;;;;5058741;28;20418;-77
2022/02/06 06:58:16;;;;;;;12.68;2.78;;;17.40;61.90;;;;;;5058586;28;20340;-77
2022/02/06 07:00:56;;;;;;;18.00;2.53;;;17.40;61.70;;;;;;5046959;28;20097;-78
2022/02/06 07:03:23;;;;;;;17.95;2.80;;;17.50;61.80;;;;;;5078535;28;20063;-77
2022/02/06 07:05:49;;;;;;;11.32;2.60;;;17.60;61.80;;;;;;5051094;28;20041;-77
2022/02/06 07:08:16;;;;;;;11.93;2.40;;;17.60;62.10;;;;;;5091497;28;20193;-77
2022/02/06 07:10:42;;;;;;;12.27;2.85;;;17.60;61.70;;;;;;5058383;28;20056;-79
2022/02/06 07:13:08;;;;;;;10.13;3.05;;;17.60;61.70;;;;;;5041381;28;20052;-79
2022/02/06 07:15:34;;;;;;;9.77;2.42;;;17.60;61.70;;;;;;5097264;28;20058;-78
2022/02/06 07:18:00;;;;;;;11.52;2.03;;;17.60;61.80;;;;;;5074101;28;20039;-77
2022/02/06 07:20:25;;;;;;;11.27;2.08;;;17.60;61.70;;;;;;5098159;28;20429;-77
2022/02/06 07:22:54;;;;;;;11.60;3.03;;;17.60;61.70;;;;;;5115802;28;20047;-79
2022/02/06 07:25:39;;;;;;;13.13;2.50;;;17.60;61.80;;;;;;5081594;28;20046;-80
2022/02/06 07:28:07;;;;;;;13.32;2.33;;;17.50;61.50;;;;;;5098223;28;20044;-76
2022/02/06 07:30:33;;;;;;;11.15;2.33;;;17.50;61.80;;;;;;5113106;28;20043;-78
2022/02/06 07:32:59;;;;;;;10.90;2.55;;;17.40;61.70;;;;;;5095540;28;20466;-77
2022/02/06 07:35:24;;;;;;;11.98;2.78;;;17.40;61.80;;;;;;5077532;28;20091;-79
2022/02/06 07:37:58;;;;;;;11.82;2.22;;;17.40;61.80;;;;;;5095508;28;20052;-80
2022/02/06 07:40:24;;;;;;;13.73;2.85;;;17.50;61.90;;;;;;5095424;28;20417;-79
2022/02/06 07:42:50;;;;;;;8.20;2.20;;;17.40;61.30;;;;;;5077644;28;20143;-78
2022/02/06 07:45:16;;;;;;;10.18;2.10;;;17.40;61.70;;;;;;5094979;28;20430;-80
2022/02/06 07:47:44;;;;;;;16.27;2.33;;;17.40;61.60;;;;;;5060307;28;20455;-78
2022/02/06 07:50:13;;;;;;;11.93;2.60;;;17.30;61.60;;;;;;5094916;28;20118;-80
2022/02/06 07:52:39;;;;;;;16.77;2.83;;;17.30;61.50;;;;;;5095361;28;20039;-81
2022/02/06 07:55:07;;;;;;;11.27;2.45;;;17.30;61.50;;;;;;5061922;28;20044;-80
2022/02/06 07:57:33;;;;;;;18.27;3.20;;;17.30;61.50;;;;;;5074978;28;20060;-79
2022/02/06 08:00:00;;;;;;;14.43;2.80;;;17.30;61.90;;;;;;5057612;28;20056;-78
2022/02/06 08:02:25;;;;;;;23.17;3.15;;;17.30;61.90;;;;;;5076593;28;20519;-77
2022/02/06 08:04:51;;;;;;;18.02;3.05;;;17.40;62.10;;;;;;5091429;28;20123;-79
2022/02/06 08:07:18;;;;;;;19.27;2.90;;;17.40;62.10;;;;;;5066820;28;20055;-78
2022/02/06 08:12:10;;;;;;;22.05;3.40;;;17.50;62.00;;;;;;5095366;28;20384;-75
2022/02/06 08:14:54;;;;;;;21.70;3.28;;;17.50;61.80;;;;;;5095014;28;20047;-78
2022/02/06 08:17:30;;;;;;;17.63;2.50;;;17.50;62.00;;;;;;5095297;28;20095;-73
2022/02/06 08:19:57;;;;;;;11.02;3.25;;;17.50;62.20;;;;;;5077221;28;20474;-75
2022/02/06 08:22:23;;;;;;;16.38;2.90;;;17.50;62.40;;;;;;5095253;28;20083;-73
2022/02/06 08:24:50;;;;;;;15.43;2.45;;;17.60;62.30;;;;;;5095067;28;20202;-74
2022/02/06 08:27:17;;;;;;;12.13;2.53;;;17.50;62.40;;;;;;5077436;28;20056;-75
2022/02/06 08:29:45;;;;;;;14.93;2.72;;;17.50;62.60;;;;;;5094840;28;20055;-75
2022/02/06 08:32:12;;;;;;;12.60;2.80;;;17.50;62.70;;;;;;5077272;28;20105;-75
2022/02/06 08:34:38;;;;;;;18.00;2.65;;;17.50;62.70;;;;;;5094463;28;20092;-76
2022/02/06 08:37:04;;;;;;;16.60;2.83;;;17.00;58.10;;;;;;5092884;28;20087;-73
2022/02/06 08:39:34;;;;;;;10.43;2.30;;;16.70;62.80;;;;;;5064492;28;20052;-76
2022/02/06 08:42:01;;;;;;;13.63;2.35;;;16.90;63.60;;;;;;5074474;28;20055;-74
2022/02/06 08:44:28;;;;;;;9.63;2.50;;;16.90;63.40;;;;;;5074706;28;20055;-75
2022/02/06 08:46:54;;;;;;;9.45;2.65;;;17.00;63.10;;;;;;5074562;28;20055;-76
2022/02/06 08:49:20;;;;;;;9.38;2.10;;;17.00;62.90;;;;;;5074517;28;20044;-77
2022/02/06 08:51:46;;;;;;;13.18;2.55;;;17.00;63.20;;;;;;5074397;28;20406;-74
2022/02/06 08:54:12;;;;;;;11.38;2.33;;;17.00;63.00;;;;;;5074736;28;20115;-76
2022/02/06 08:56:39;;;;;;;16.15;3.08;;;17.00;62.90;;;;;;5074158;28;20478;-77
2022/02/06 08:59:07;;;;;;;10.88;2.55;;;17.00;60.50;;;;;;5078108;28;20452;-74
2022/02/06 09:01:33;;;;;;;10.93;2.45;;;15.60;63.70;;;;;;5078299;28;20121;-75
2022/02/06 09:03:59;;;;;;;11.93;2.47;;;15.00;66.50;;;;;;5090146;28;20417;-76
2022/02/06 09:06:26;;;;;;;9.32;2.15;;;14.80;68.10;;;;;;5092711;28;20123;-76
2022/02/06 09:08:56;;;;;;;8.82;2.15;;;15.40;67.90;;;;;;5098330;28;20071;-76
2022/02/06 09:11:24;;;;;;;10.65;2.53;;;15.70;67.10;;;;;;5098471;28;20125;-76
2022/02/06 09:13:49;;;;;;;8.13;3.25;;;16.00;66.60;;;;;;5098156;28;20122;-76
2022/02/06 09:16:15;;;;;;;14.13;3.50;;;15.70;66.40;;;;;;5098108;28;20132;-76
2022/02/06 09:18:41;;;;;;;17.10;6.20;;;16.00;66.20;;;;;;5110845;28;20043;-70
2022/02/06 09:21:09;;;;;;;9.02;2.95;;;16.20;67.90;;;;;;5091671;28;20048;-77
2022/02/06 09:23:35;;;;;;;11.88;3.38;;;16.30;65.80;;;;;;5087721;28;20394;-76
2022/02/06 09:26:02;;;;;;;8.23;2.70;;;16.50;64.90;;;;;;5080235;28;20055;-75
2022/02/06 09:28:28;;;;;;;9.27;3.60;;;16.50;63.90;;;;;;5109411;28;20378;-76
2022/02/06 09:31:01;;;;;;;9.13;3.53;;;16.50;64.60;;;;;;5100365;28;20054;-74
2022/02/06 09:35:52;;;;;;;11.85;4.50;;;16.40;63.50;;;;;;5076762;28;20461;-77
2022/02/06 09:38:18;;;;;;;9.98;3.90;;;16.40;66.90;;;;;;5057689;28;20127;-76
2022/02/06 09:40:45;;;;;;;10.27;3.45;;;16.50;67.30;;;;;;5075933;28;20190;-76
2022/02/06 09:43:13;;;;;;;15.30;3.10;;;16.60;67.10;;;;;;5076474;28;20490;-76
2022/02/06 09:45:41;;;;;;;9.18;2.70;;;16.60;67.30;;;;;;5077182;28;20080;-77
2022/02/06 09:48:11;;;;;;;5.22;2.10;;;16.70;67.20;;;;;;5077140;28;20084;-74
2022/02/06 09:50:37;;;;;;;10.07;2.63;;;16.70;66.70;;;;;;5076549;28;20045;-75
2022/02/06 09:53:03;;;;;;;10.23;3.00;;;16.80;67.00;;;;;;5076905;28;20054;-75
2022/02/06 09:55:29;;;;;;;10.75;2.83;;;16.80;67.10;;;;;;5077506;28;20052;-76
2022/02/06 09:58:01;;;;;;;8.25;1.98;;;16.80;66.90;;;;;;5060396;28;20048;-76
2022/02/06 10:00:29;;;;;;;7.00;2.00;;;16.80;66.60;;;;;;5090992;28;20532;-74
2022/02/06 10:03:02;;;;;;;7.38;1.58;;;16.80;67.00;;;;;;5085469;28;20060;-76
2022/02/06 10:05:35;;;;;;;8.57;2.40;;;16.80;66.70;;;;;;5076792;28;20044;-74
2022/02/06 10:08:16;;;;;;;7.38;1.50;;;16.80;67.00;;;;;;5076916;28;20048;-77
2022/02/06 10:11:02;;;;;;;7.95;2.15;;;16.80;67.00;;;;;;5058591;28;20160;-77
2022/02/06 10:13:30;;;;;;;7.05;1.98;;;16.80;67.10;;;;;;5077247;28;20091;-75
2022/02/06 10:15:56;;;;;;;6.22;1.80;;;16.80;67.20;;;;;;5075838;28;20452;-75
2022/02/06 10:18:22;;;;;;;11.88;2.00;;;16.80;67.50;;;;;;5076964;28;20379;-75
2022/02/06 10:20:49;;;;;;;6.53;1.77;;;16.90;67.50;;;;;;5076702;28;20375;-77
2022/02/06 10:23:32;;;;;;;8.82;2.03;;;16.90;67.40;;;;;;5076872;28;20053;-76
2022/02/06 10:26:17;;;;;;;7.78;1.30;;;17.00;67.00;;;;;;5076699;28;20053;-77
2022/02/06 10:28:46;;;;;;;7.57;1.52;;;17.00;66.00;;;;;;5059350;28;20456;-76
2022/02/06 10:31:16;;;;;;;4.32;1.40;;;17.00;65.90;;;;;;5076759;28;20088;-75
2022/02/06 10:33:48;;;;;;;10.63;2.10;;;16.70;64.30;;;;;;5092986;28;20387;-75
2022/02/06 10:36:34;;;;;;;18.05;1.60;;;16.80;66.10;;;;;;5066271;28;20056;-72
2022/02/06 10:39:02;;;;;;;11.27;1.85;;;16.90;66.20;;;;;;5056831;28;20490;-71
2022/02/06 10:41:31;;;;;;;11.60;1.63;;;16.70;64.90;;;;;;5046346;28;20461;-71
2022/02/06 10:44:06;;;;;;;8.30;1.23;;;16.10;66.40;;;;;;5060199;28;20045;-75
2022/02/06 10:46:42;;;;;;;7.72;1.35;;;15.50;64.70;;;;;;5038547;28;20053;-76
2022/02/06 10:49:14;;;;;;;7.93;1.45;;;15.80;67.80;;;;;;5039154;28;20121;-76
2022/02/06 10:51:51;;;;;;;12.00;1.70;;;16.10;67.90;;;;;;5056454;28;20048;-76
2022/02/06 10:54:29;;;;;;;15.35;1.90;;;16.40;67.60;;;;;;5056015;28;20052;-76
2022/02/06 10:57:00;;;;;;;13.18;2.45;;;16.60;67.00;;;;;;5057906;28;20476;-77
2022/02/06 10:59:27;;;;;;;6.53;1.20;;;16.70;66.40;;;;;;5043152;28;20041;-78
2022/02/06 11:01:54;;;;;;;12.43;1.52;;;16.80;65.40;;;;;;5055842;28;20084;-76
2022/02/06 11:04:32;;;;;;;5.28;1.10;;;16.90;64.40;;;;;;5056034;28;20355;-75
2022/02/06 11:07:19;;;;;;;13.52;1.13;;;16.90;64.10;;;;;;5038200;28;20037;-77
2022/02/06 11:09:47;;;;;;;7.40;1.02;;;17.00;63.30;;;;;;5038777;28;20049;-75
2022/02/06 11:12:16;;;;;;;10.40;0.98;;;17.00;63.30;;;;;;5051815;28;20077;-75
2022/02/06 11:14:47;;;;;;;5.43;0.70;;;16.90;63.10;;;;;;5061646;28;20049;-76
2022/02/06 11:17:27;;;;;;;5.82;1.33;;;16.90;63.10;;;;;;5059363;28;20102;-75
2022/02/06 11:20:00;;;;;;;5.35;0.80;;;16.90;63.00;;;;;;5061608;28;20083;-78
2022/02/06 11:22:27;;;;;;;11.88;1.33;;;16.90;63.00;;;;;;5075440;28;20203;-75
2022/02/06 11:24:52;;;;;;;7.63;1.15;;;16.90;63.20;;;;;;5075552;28;20387;-75
2022/02/06 11:27:20;;;;;;;4.45;0.70;;;16.80;63.20;;;;;;5073840;28;20044;-72
2022/02/06 11:29:47;;;;;;;5.35;0.90;;;16.80;63.20;;;;;;5046759;28;20056;-72
2022/02/06 11:32:14;;;;;;;5.53;0.80;;;16.80;63.30;;;;;;5055151;28;20065;-76
2022/02/06 11:34:42;;;;;;;12.80;1.42;;;16.70;63.30;;;;;;5070780;28;20352;-75
2022/02/06 11:46:18;;;;;;;9.80;1.10;;;16.70;63.70;;;;;;5092292;28;20044;-78
2022/02/06 11:48:44;;;;;;;10.65;1.35;;;16.80;63.60;;;;;;5095163;28;20052;-74
2022/02/06 11:51:20;;;;;;;15.80;1.40;;;16.80;63.70;;;;;;5091240;28;20051;-75
2022/02/06 11:53:46;;;;;;;15.45;2.03;;;16.90;63.90;;;;;;5090652;28;20052;-77
2022/02/06 11:56:33;;;;;;;9.00;1.25;;;16.90;64.00;;;;;;5086576;28;20375;-76
2022/02/06 11:59:05;;;;;;;7.63;1.10;;;17.00;64.10;;;;;;5093773;28;20052;-76
2022/02/06 12:01:31;;;;;;;9.60;1.38;;;17.00;64.00;;;;;;5081079;28;20119;-76
2022/02/06 12:04:02;;;;;;;6.53;1.00;;;17.00;64.00;;;;;;5087183;28;20192;-75
2022/02/06 12:06:30;;;;;;;7.78;1.02;;;17.00;64.10;;;;;;5082651;28;20044;-76
2022/02/06 12:08:59;;;;;;;7.57;1.13;;;17.00;64.40;;;;;;5078723;28;20048;-71
2022/02/06 12:11:31;;;;;;;9.88;1.08;;;17.00;64.60;;;;;;5084167;28;20127;-75
2022/02/06 12:14:06;;;;;;;12.43;1.42;;;17.10;65.00;;;;;;5076983;28;20121;-77
2022/02/06 12:16:41;;;;;;;8.77;0.85;;;17.00;64.70;;;;;;5093169;28;20132;-77
2022/02/06 12:19:36;;;;;;;13.52;1.50;;;17.00;63.70;;;;;;5067400;28;20048;-77
2022/02/06 12:22:28;;;;;;;9.02;1.25;;;17.10;63.20;;;;;;5043221;28;20103;-77
2022/02/06 12:25:23;;;;;;;10.48;1.00;;;17.10;63.20;;;;;;5058687;28;20055;-76
2022/02/06 12:27:51;;;;;;;6.13;1.08;;;17.10;63.30;;;;;;5075158;28;20424;-72
2022/02/06 12:30:22;;;;;;;9.73;1.13;;;17.10;63.50;;;;;;5078288;28;20052;-77
2022/02/06 12:32:48;;;;;;;7.32;1.50;;;17.20;63.50;;;;;;5075671;28;20132;-76
2022/02/06 12:38:05;;;;;;;5.88;1.15;;;17.20;63.40;;;;;;5066081;28;20442;-74
2022/02/06 12:40:31;;;;;;;12.13;2.00;;;17.20;63.50;;;;;;5090803;28;20442;-72
2022/02/06 12:43:00;;;;;;;13.20;1.20;;;17.20;63.10;;;;;;5084392;28;20124;-79
2022/02/06 12:45:27;;;;;;;8.95;1.63;;;17.20;62.90;;;;;;5081398;28;20040;-75
2022/02/06 12:47:58;;;;;;;7.20;1.33;;;17.20;62.70;;;;;;5095717;28;20087;-75
2022/02/06 12:50:29;;;;;;;6.55;1.10;;;17.20;62.40;;;;;;5088870;28;20622;-80
2022/02/06 12:52:56;;;;;;;8.40;1.15;;;17.30;62.70;;;;;;5067298;28;20053;-76
2022/02/06 12:55:26;;;;;;;13.45;1.92;;;17.40;62.90;;;;;;5084650;28;20044;-77
2022/02/06 12:57:54;;;;;;;7.18;1.50;;;17.50;62.90;;;;;;5091784;28;20048;-76
2022/02/06 13:00:26;;;;;;;6.00;1.50;;;17.50;62.70;;;;;;5092004;28;20416;-76
2022/02/06 13:02:53;;;;;;;6.45;1.42;;;17.60;62.80;;;;;;5078326;28;20044;-77
2022/02/06 13:05:20;;;;;;;9.15;1.63;;;17.70;63.30;;;;;;5077891;28;20113;-77
2022/02/06 13:07:46;;;;;;;10.18;1.50;;;17.80;62.60;;;;;;5077975;28;20047;-75
2022/02/06 13:10:13;;;;;;;6.90;1.42;;;17.90;62.50;;;;;;5075692;28;20067;-76
2022/02/06 13:13:20;;;;;;;6.40;0.98;;;17.90;62.60;;;;;;5497882;22;20069;-78
2022/02/06 13:16:08;;;;;;;6.45;1.58;;;18.00;62.80;;;;;;4998302;28;20054;-78
2022/02/06 13:19:30;;;;;;;8.82;1.13;;;17.90;62.60;;;;;;4997919;28;20057;-73
2022/02/06 13:21:47;;;;;;;9.10;1.00;;;18.00;62.50;;;;;;4997690;28;20058;-76
2022/02/06 13:24:26;;;;;;;14.77;2.10;;;17.90;62.50;;;;;;5017203;28;20060;-79
2022/02/06 13:29:52;;;;;;;10.38;2.38;;;17.90;62.80;;;;;;5017114;28;20054;-78
2022/02/06 13:38:01;;;;;;;10.80;1.77;;;17.80;63.80;;;;;;5017936;28;20372;-78
2022/02/06 13:40:32;;;;;;;12.80;1.42;;;17.80;63.30;;;;;;5017725;28;20046;-78
2022/02/06 13:43:01;;;;;;;10.05;1.42;;;17.80;63.30;;;;;;5017062;28;20356;-78
2022/02/06 13:45:28;;;;;;;10.02;1.75;;;17.80;63.40;;;;;;5016767;28;20061;-77
2022/02/06 13:47:56;;;;;;;9.40;1.23;;;17.80;63.30;;;;;;5017307;28;20041;-77
2022/02/06 13:50:26;;;;;;;8.32;1.38;;;17.50;62.30;;;;;;5017216;28;20077;-76
2022/02/06 13:53:15;;;;;;;14.43;1.42;;;17.00;63.40;;;;;;5016787;28;20058;-79
2022/02/06 13:55:49;;;;;;;21.40;2.35;;;17.00;65.20;;;;;;5017778;28;20046;-75
2022/02/06 13:58:18;;;;;;;13.48;2.55;;;17.10;64.90;;;;;;5016616;28;20053;-74
2022/02/06 14:01:00;;;;;;;14.30;2.47;;;17.20;64.50;;;;;;5017516;28;20085;-76
2022/02/06 14:03:50;;;;;;;12.50;1.52;;;17.30;64.60;;;;;;5016377;28;20415;-75
2022/02/06 14:06:24;;;;;;;18.05;2.00;;;17.30;63.90;;;;;;5016914;28;20058;-76
2022/02/06 14:09:07;;;;;;;15.55;2.28;;;17.40;63.30;;;;;;5016974;28;20049;-74
2022/02/06 14:11:34;;;;;;;11.77;2.07;;;17.40;63.30;;;;;;5017332;28;20448;-75
2022/02/06 14:14:23;;;;;;;9.70;1.77;;;17.40;63.40;;;;;;5023332;28;20356;-74
2022/02/06 14:16:54;;;;;;;14.40;1.75;;;17.50;63.20;;;;;;5037265;28;20049;-74
2022/02/06 14:19:44;;;;;;;5.57;1.20;;;17.60;63.20;;;;;;5037142;28;20349;-76
2022/02/06 14:22:23;;;;;;;15.30;1.70;;;17.60;63.10;;;;;;5036690;28;20045;-75
2022/02/06 14:24:59;;;;;;;6.18;1.98;;;17.70;62.90;;;;;;5036650;28;20057;-75
2022/02/06 14:27:44;;;;;;;8.18;1.45;;;17.70;62.70;;;;;;5035994;28;20107;-75
2022/02/06 14:30:14;;;;;;;9.77;1.73;;;17.70;62.30;;;;;;5036573;28;20056;-74
2022/02/06 14:33:00;;;;;;;7.55;1.75;;;17.70;62.30;;;;;;5036550;28;20053;-75
2022/02/06 14:35:46;;;;;;;7.93;1.70;;;17.70;62.30;;;;;;5037213;28;20045;-75
2022/02/06 14:38:21;;;;;;;8.02;1.45;;;17.70;62.20;;;;;;5036410;28;20114;-75
2022/02/06 14:41:06;;;;;;;8.88;1.67;;;17.70;62.30;;;;;;5036073;28;20468;-75
2022/02/06 14:43:40;;;;;;;10.75;1.60;;;17.80;62.30;;;;;;5036550;28;20120;-74
2022/02/06 14:46:08;;;;;;;7.93;1.27;;;17.80;62.10;;;;;;5036574;28;20045;-76
2022/02/06 14:48:34;;;;;;;5.00;0.98;;;17.80;62.10;;;;;;5036415;28;20049;-75
2022/02/06 14:51:00;;;;;;;6.80;1.20;;;17.80;62.00;;;;;;5035597;28;20114;-75
2022/02/06 14:53:26;;;;;;;13.35;2.10;;;17.80;62.00;;;;;;5031004;28;20389;-75
2022/02/06 14:55:55;;;;;;;7.85;1.63;;;17.40;62.80;;;;;;5015809;28;20054;-76
2022/02/06 14:58:25;;;;;;;4.70;1.02;;;17.40;63.40;;;;;;5036395;28;20389;-70
2022/02/06 15:00:52;;;;;;;6.78;1.33;;;17.40;63.20;;;;;;5035340;28;20463;-81
2022/02/06 15:03:18;;;;;;;7.68;1.50;;;17.50;62.90;;;;;;5035060;28;20456;-81
2022/02/06 15:05:45;;;;;;;6.03;1.33;;;17.50;62.70;;;;;;5035208;28;20057;-79
2022/02/06 15:08:12;;;;;;;5.13;1.05;;;17.60;62.50;;;;;;5032371;28;20498;-77
2022/02/06 15:10:38;;;;;;;6.38;1.20;;;17.70;62.40;;;;;;5015483;28;20124;-79
2022/02/06 15:13:07;;;;;;;11.90;2.13;;;17.70;62.40;;;;;;5016410;28;20372;-81
2022/02/06 15:15:39;;;;;;;9.57;1.40;;;17.70;62.40;;;;;;5016194;28;20415;-78
2022/02/06 15:18:23;;;;;;;5.57;1.25;;;17.70;62.50;;;;;;5035039;28;20057;-77
2022/02/06 15:20:54;;;;;;;12.02;1.55;;;17.70;62.90;;;;;;5035522;28;20050;-80
2022/02/06 15:23:22;;;;;;;8.68;1.52;;;17.70;63.20;;;;;;5034719;28;20494;-81
2022/02/06 15:25:49;;;;;;;10.27;1.42;;;17.80;63.20;;;;;;5022955;28;20116;-76
2022/02/06 15:28:14;;;;;;;12.75;2.35;;;17.70;63.00;;;;;;5015797;28;20136;-76
2022/02/06 15:30:40;;;;;;;9.48;1.27;;;17.80;62.80;;;;;;5016180;28;20460;-76
2022/02/06 15:33:06;;;;;;;7.75;1.50;;;17.80;62.90;;;;;;5015508;28;20125;-78